aviador You're here:

KMIS Decoded Metar

MISSION in SD, USA
Report Time2018-07-22 06:55:00
UTC Time2018-07-22 07:13:05
Flight Rules unknown UNKNOWN
Wind270° at 22 kt
W.Rank270° ranks 25
Current wind is above 270° avg. (9.8)
VisibilityN/A
Phenomena:N/A
Clouds:N/A
Expected CloudBase > 800 ft AGL from Temp-Dew spread
CeilingNone
Temp29°C (ISA +19)
Dew Point27°C (89% RH)
Heat Index36.8°C
AAT28.8°C
QNH1013 hPa
Density Alt5,262 ft
Elevation2,589 ft
Report Wrong Elevation
Raw Report
KMIS 220655Z AUTO 27022KT CLR 29/27 A2991 RMK A01=

Extra information for KMIS:More info

Metar Taf Metar & Taf Last 4 Metars F.Rules Stats Wind Profile Meteogram Temp Stats Airport Information Weather charts Add Link Nearby VenuesMetar ALERT Operation Metar Decoded Social comments

AIRNAV info for KMIS